Airfield :
LOGIN :

Register | Disclaimer

   EN    FR    IT 

 










Legend :    VFR   Marginal VFR   IFR   Intensive IFR   Very Intensive IFR
Visi :
Ceiling :
>= 8 km
>= 3000ft
5 to 8 km
1000 to 3000 ft
1500m to 5 km
500 to 1000 ft
800 to 1500m
200 to 500 ft
< 800m
< 200 ft
Symbols :   Thunderstorms  Fog  Heavy snow  Heavy precipitations  Wind > 20 kt
SIGMETs :     Misc.  Thunderstorms  Icing  Turbulence  Mountain Waves  Volcanic Ashes






- Airport Elevation : 296 ft
- IATA code : GKE


ETNG - Geilenkirchen

CURRENT METAR :
  • 010750Z 11002KT CAVOK 14/12 Q1002 NOSIG

EXPIRED METARs :
  • 010650Z 12004KT CAVOK 13/11 Q1002 NOSIG
  • 010550Z 12004KT CAVOK 13/11 Q1003 NOSIG

TAF TAF ETNG
Valid from the 01 at 06:00 until the 01 at 21:00 UTC


010500Z 0106/0121 16008KT CAVOK
PROB30
TEMPO 0108/0111 -RA SCT030 BKN100
TEMPO 0111/0114 6000 -RA SCT030 BKN070
BECMG 0113/0115 22010G18KT
TEMPO 0114/0117 21015G30KT 5000 SHRA SCT020TCU BKN030
BECMG 0117/0119 22007KT



MET'MAP, your aeronautical weather chart ! - Copyright ORBIFLY December 2007 - Disclaimer

ORBIFLY MET'MAP TEAM :

Programming & Development : Alexandra Zaïnal
Concept & original design : Baudouin d'Aumeries
Assistance for programming : Marc-Olivier Méhu
Technical & hardware support : Manuel Goepfert

Contact : metmap@orbifly.com




SOURCES & CREDITS :

   NOAA